Japan Airlines Virtual Airport Information Service

Guangzhou Baiyun International Airport

ICAO: ZGGG Country: China
Latitude: 23.3924 Longitude: 113.299
Latest Arrival : CSN304 (EGLL-ZGGG) Latest Departure : CSN335 (1) (ZGGG-NZAA)


WX CaptureLIVE
Data provided by noaa.gov | Fetched at 17:08:04

METAR : ZGGG 291630Z VRB01MPS 7000 NSC 27/23 Q1008 NOSIG

TAF : ZGGG 290915Z 2912/3012 12003MPS 8000 BKN040 TX29/3007Z TN24/2921Z TEMPO 2920/3002 2000 +TSRA SCT011 SCT030CB BKN033 BECMG 2922/2923 02005MPS TEMPO 3002/3006 3500 TSRA SCT011 SCT030CB BKN033 TEMPO 3006/3009 3500 SHRA SCT011 FEW030CB BKN033


Runway Data for ZGGG
Data provided by openaviationdata.com

Runway ID Mag Var Hdg Length Elevation Surface ILS Freq ILS Id ILS Slope
02L -2 15° 11848 ft 50 ft Concrete 109.3 IOO 3
02R -2 15° 12504 ft 50 ft Concrete 110.9 IBB 3
20L -2 195° 12504 ft 50 ft Concrete 110.3 IAA 3
20R -2 195° 11848 ft 50 ft Concrete 111.5 IPP 3

Guangzhou Baiyun International Airport, China
Use only for reference purposes



Not for navigational purposes.